Time;durP1;ratioP1;P1;durP2;ratioP2;P2;SDS_P1;SDS_P2;PMS_P1;PMS_P2;Temp;Humidity;BMP_temperature;BMP_pressure;BME280_temperature;BME280_humidity;BME280_pressure;Samples;Min_cycle;Max_cycle;Signal;HPM_P1;HPM_P2
2021/06/27 07:01:59;;;;;;;4.20;3.90;;;;;;;26.75;50.38;98679.09;5245472;23;20097;-75
2021/06/27 07:04:25;;;;;;;4.80;4.40;;;;;;;26.00;52.27;98687.22;4967278;28;20038;-75
2021/06/27 07:06:50;;;;;;;4.07;3.78;;;;;;;26.23;52.96;98677.34;4965182;28;20027;-75
2021/06/27 07:09:16;;;;;;;5.05;4.57;;;;;;;24.62;55.84;98682.31;4962642;28;20540;-75
2021/06/27 07:11:42;;;;;;;4.53;4.13;;;;;;;25.68;53.47;98673.94;4981946;28;20022;-75
2021/06/27 07:14:07;;;;;;;5.03;4.30;;;;;;;25.02;55.98;98679.19;4984976;28;20488;-76
2021/06/27 07:16:33;;;;;;;6.10;4.00;;;;;;;24.70;55.75;98685.19;4985688;28;20030;-76
2021/06/27 07:18:58;;;;;;;5.93;3.78;;;;;;;23.82;58.39;98680.34;4984258;28;20387;-76
2021/06/27 07:21:26;;;;;;;3.97;3.53;;;;;;;23.94;58.82;98680.41;4985679;28;20018;-75
2021/06/27 07:23:51;;;;;;;4.95;4.03;;;;;;;24.38;57.40;98681.53;4980354;28;20062;-75
2021/06/27 07:26:17;;;;;;;4.65;3.45;;;;;;;25.80;54.22;98676.44;4987629;28;20049;-76
2021/06/27 07:28:42;;;;;;;4.38;3.67;;;;;;;27.66;49.55;98675.50;4981037;28;20070;-76
2021/06/27 07:31:08;;;;;;;6.47;4.05;;;;;;;27.70;47.22;98677.88;4985309;28;20019;-76
2021/06/27 07:33:33;;;;;;;7.20;3.40;;;;;;;27.87;48.33;98678.06;4979164;28;20018;-76
2021/06/27 07:35:58;;;;;;;4.10;3.30;;;;;;;29.11;44.40;98684.38;4986240;28;20023;-76
2021/06/27 07:38:24;;;;;;;3.42;3.13;;;;;;;27.91;46.51;98682.16;4979118;28;20164;-76
2021/06/27 07:40:50;;;;;;;3.50;3.20;;;;;;;30.09;41.89;98674.75;4983815;28;20493;-76
2021/06/27 07:43:16;;;;;;;5.10;2.92;;;;;;;28.62;43.93;98678.31;4984474;28;20109;-76
2021/06/27 07:45:42;;;;;;;4.00;2.92;;;;;;;28.01;44.46;98674.16;4988772;28;20061;-76
2021/06/27 07:48:08;;;;;;;5.15;3.00;;;;;;;29.37;41.82;98674.66;4985081;28;20412;-76
2021/06/27 07:50:33;;;;;;;2.78;2.55;;;;;;;29.94;40.95;98671.78;4987452;28;20037;-76
2021/06/27 07:52:58;;;;;;;4.15;2.83;;;;;;;27.67;45.12;98671.88;4985457;28;20113;-76
2021/06/27 07:55:24;;;;;;;3.08;2.88;;;;;;;25.47;50.73;98684.47;4982127;28;20023;-76
2021/06/27 07:57:49;;;;;;;3.83;2.78;;;;;;;24.60;53.15;98681.56;4978564;28;20026;-76
2021/06/27 08:00:15;;;;;;;4.55;2.97;;;;;;;25.89;51.38;98670.38;4981646;28;20054;-76
2021/06/27 08:02:41;;;;;;;3.40;3.13;;;;;;;27.61;45.87;98666.25;4982846;28;20026;-75
2021/06/27 08:05:07;;;;;;;3.20;3.00;;;;;;;27.86;45.05;98665.75;4988713;28;20019;-76
2021/06/27 08:07:33;;;;;;;3.15;2.65;;;;;;;30.05;42.22;98660.84;4990545;28;20101;-76
2021/06/27 08:09:58;;;;;;;2.72;2.53;;;;;;;30.77;39.43;98656.22;4982977;28;20029;-76
2021/06/27 08:12:24;;;;;;;3.20;2.55;;;;;;;32.68;37.76;98658.94;4987729;28;20062;-74
2021/06/27 08:14:49;;;;;;;5.15;2.95;;;;;;;30.87;39.70;98664.97;4979848;28;20054;-74
2021/06/27 08:17:14;;;;;;;3.67;2.50;;;;;;;32.59;35.86;98657.28;4985444;28;20026;-74
2021/06/27 08:19:40;;;;;;;2.80;2.60;;;;;;;32.06;36.42;98659.50;4979751;28;20031;-74
2021/06/27 08:22:05;;;;;;;3.53;2.53;;;;;;;31.84;37.60;98646.75;4985135;28;20043;-74
2021/06/27 08:24:30;;;;;;;2.90;2.70;;;;;;;31.70;37.70;98646.38;4977538;28;20054;-74
2021/06/27 08:26:56;;;;;;;2.70;2.50;;;;;;;31.04;38.61;98646.31;4984098;28;20042;-74
2021/06/27 08:29:22;;;;;;;2.33;2.20;;;;;;;30.62;37.85;98649.75;4980677;28;20266;-74
2021/06/27 08:31:47;;;;;;;2.83;2.50;;;;;;;30.41;38.42;98647.44;4983059;28;20110;-74
2021/06/27 08:34:13;;;;;;;4.13;2.28;;;;;;;32.01;35.75;98653.81;4979567;28;20078;-74
2021/06/27 08:36:39;;;;;;;3.30;2.20;;;;;;;32.31;36.10;98649.59;4980238;28;20037;-75
2021/06/27 08:39:04;;;;;;;2.42;2.20;;;;;;;31.96;36.36;98648.94;4989428;28;20463;-75
2021/06/27 08:41:29;;;;;;;6.57;2.25;;;;;;;33.39;34.14;98649.97;4974745;28;20081;-75
2021/06/27 08:43:56;;;;;;;2.60;2.40;;;;;;;34.33;32.55;98642.63;4984111;28;20027;-75
2021/06/27 08:46:23;;;;;;;1.92;1.83;;;;;;;33.81;33.02;98654.13;4984435;28;20030;-75
2021/06/27 08:48:49;;;;;;;2.28;2.15;;;;;;;30.62;37.90;98649.75;4990396;28;20029;-75
2021/06/27 08:51:15;;;;;;;2.35;1.80;;;;;;;33.17;33.95;98646.25;4987581;28;20022;-76
2021/06/27 08:53:41;;;;;;;3.33;2.08;;;;;;;33.09;34.43;98648.13;4989536;28;20030;-75
2021/06/27 08:56:09;;;;;;;2.83;1.88;;;;;;;32.81;33.55;98651.19;4986041;28;20034;-76
2021/06/27 08:58:40;;;;;;;2.00;1.90;;;;;;;33.00;33.21;98650.84;4989546;28;20041;-78
2021/06/27 09:01:10;;;;;;;2.00;1.90;;;;;;;32.61;33.44;98639.19;4985837;28;20038;-75
2021/06/27 09:03:37;;;;;;;2.00;1.90;;;;;;;34.21;31.46;98630.63;4987121;28;20033;-75
2021/06/27 09:06:03;;;;;;;1.92;1.80;;;;;;;32.12;33.51;98629.34;4987160;28;20053;-75
2021/06/27 09:08:28;;;;;;;2.28;1.90;;;;;;;33.32;32.39;98630.22;4984738;28;20468;-74
2021/06/27 09:10:54;;;;;;;2.63;2.05;;;;;;;33.49;32.07;98634.50;4988090;28;20022;-73
2021/06/27 09:13:40;;;;;;;1.92;1.83;;;;;;;31.89;34.09;98629.16;4983734;28;20022;-73
2021/06/27 09:16:20;;;;;;;1.95;1.73;;;;;;;30.55;35.54;98643.34;4984949;28;20460;-73
2021/06/27 09:18:47;;;;;;;2.35;1.88;;;;;;;30.67;34.83;98639.41;4984355;28;20029;-73
2021/06/27 09:21:13;;;;;;;2.13;1.75;;;;;;;32.43;32.86;98632.16;4989164;28;20085;-74
2021/06/27 09:23:47;;;;;;;2.08;1.60;;;;;;;34.68;29.32;98635.75;4985070;28;20031;-74
2021/06/27 09:26:28;;;;;;;1.98;1.85;;;;;;;33.69;30.51;98620.59;4976508;28;20027;-74
2021/06/27 09:28:54;;;;;;;1.60;1.50;;;;;;;32.41;32.09;98618.09;4980788;28;20471;-74
2021/06/27 09:31:40;;;;;;;1.67;1.58;;;;;;;32.64;32.76;98623.59;4981226;28;20043;-74
2021/06/27 09:34:09;;;;;;;4.80;1.50;;;;;;;31.36;33.07;98618.84;4985239;28;20873;-74
2021/06/27 09:36:36;;;;;;;;;;;;;;;30.41;35.19;98632.25;4982074;28;20091;-73
2021/06/27 09:39:11;;;;;;;1.95;1.30;;;;;;;30.63;34.41;98624.69;4980816;28;19914;-74
2021/06/27 09:41:52;;;;;;;2.90;1.88;;;;;;;29.45;36.62;98623.19;4984148;28;20045;-74
2021/06/27 09:44:18;;;;;;;1.83;1.70;;;;;;;30.92;34.63;98619.00;4982247;28;20596;-74
2021/06/27 09:46:55;;;;;;;1.85;1.75;;;;;;;32.84;32.12;98607.09;4983033;28;20387;-74
2021/06/27 09:49:26;;;;;;;5.53;1.70;;;;;;;31.85;33.36;98606.38;4985836;28;20494;-74
2021/06/27 09:51:58;;;;;;;2.95;1.95;;;;;;;32.91;31.38;98610.75;4979570;28;20086;-74
2021/06/27 09:54:26;;;;;;;2.60;1.60;;;;;;;31.90;33.33;98608.56;4980901;28;20044;-74
2021/06/27 09:56:52;;;;;;;1.50;1.40;;;;;;;32.55;31.42;98610.38;4982796;28;20037;-74
2021/06/27 09:59:19;;;;;;;4.03;1.30;;;;;;;32.88;31.52;98609.25;4982896;28;20030;-74
2021/06/27 10:01:45;;;;;;;1.73;1.58;;;;;;;31.61;31.89;98609.00;4986347;28;20081;-74
2021/06/27 10:04:14;;;;;;;1.55;1.45;;;;;;;31.34;31.96;98608.31;4979427;28;20034;-74
2021/06/27 10:06:50;;;;;;;1.80;1.70;;;;;;;30.75;32.58;98607.38;4979539;28;20035;-75
2021/06/27 10:09:36;;;;;;;2.40;1.67;;;;;;;31.66;32.36;98614.72;4983116;28;20031;-76
2021/06/27 10:12:08;;;;;;;4.10;1.85;;;;;;;32.95;30.50;98612.94;4982041;28;20464;-75
2021/06/27 10:14:40;;;;;;;1.60;1.50;;;;;;;32.85;30.69;98601.53;4987283;28;20030;-75
2021/06/27 10:17:06;;;;;;;6.18;1.50;;;;;;;33.18;29.33;98604.09;4983157;28;20026;-76
2021/06/27 10:19:31;;;;;;;1.33;1.30;;;;;;;33.05;30.74;98609.19;4983589;28;20019;-73
2021/06/27 10:21:59;;;;;;;1.58;1.40;;;;;;;32.31;31.27;98606.69;4981979;28;20486;-74
2021/06/27 10:24:26;;;;;;;1.45;1.35;;;;;;;32.31;31.22;98595.97;4986608;28;20023;-74
2021/06/27 10:26:52;;;;;;;1.58;1.48;;;;;;;32.90;30.16;98604.56;4976286;28;20054;-74
2021/06/27 10:29:19;;;;;;;1.45;1.40;;;;;;;33.54;29.31;98587.44;4976163;28;20420;-73
2021/06/27 10:31:46;;;;;;;3.83;1.45;;;;;;;33.76;29.24;98592.84;4985664;28;20475;-74
2021/06/27 10:34:12;;;;;;;2.40;1.70;;;;;;;34.71;26.92;98580.69;4984699;28;20018;-74
2021/06/27 10:36:41;;;;;;;1.33;1.25;;;;;;;33.49;28.84;98586.13;4981959;28;20028;-74
2021/06/27 10:39:08;;;;;;;;;;;;;;;33.60;29.68;98584.88;4982231;28;20527;-74
2021/06/27 10:42:02;;;;;;;1.70;1.55;;;;;;;32.25;31.40;98585.91;4979991;28;19913;-74
2021/06/27 10:44:37;;;;;;;1.50;1.40;;;;;;;31.12;33.56;98585.63;4977411;28;20063;-74
2021/06/27 10:47:02;;;;;;;1.80;1.70;;;;;;;31.05;32.88;98581.94;4983591;28;20110;-74
2021/06/27 10:49:31;;;;;;;1.48;1.38;;;;;;;31.20;32.56;98590.16;4979230;28;20438;-73
2021/06/27 10:52:00;;;;;;;3.25;1.65;;;;;;;32.08;32.39;98595.00;4978000;28;20022;-74
2021/06/27 10:54:31;;;;;;;2.15;1.50;;;;;;;33.44;29.85;98593.06;4983830;28;20050;-74
2021/06/27 10:57:03;;;;;;;2.25;1.48;;;;;;;33.36;30.36;98599.28;4983538;28;20026;-74
2021/06/27 10:59:53;;;;;;;2.20;1.85;;;;;;;35.07;28.28;98596.09;4985392;28;20026;-74
2021/06/27 11:02:38;;;;;;;3.47;1.80;;;;;;;36.27;27.13;98589.00;4984359;28;20534;-74
2021/06/27 11:05:25;;;;;;;4.38;1.42;;;;;;;33.19;30.91;98595.03;4986309;28;20026;-74
2021/06/27 11:07:51;;;;;;;1.70;1.50;;;;;;;32.45;30.13;98602.50;4977727;28;20026;-74
2021/06/27 11:10:20;;;;;;;3.72;1.35;;;;;;;32.88;30.20;98587.78;4983051;28;20018;-76
2021/06/27 11:13:00;;;;;;;1.50;1.40;;;;;;;35.13;28.26;98592.63;4976021;28;20031;-76
2021/06/27 11:15:38;;;;;;;3.33;1.40;;;;;;;33.63;28.73;98586.38;4986049;28;20018;-76
2021/06/27 11:18:09;;;;;;;1.65;1.55;;;;;;;33.43;29.07;98591.41;4978654;28;20038;-76
2021/06/27 11:20:47;;;;;;;3.63;1.40;;;;;;;33.38;28.81;98591.91;4983961;28;20022;-76
2021/06/27 11:23:12;;;;;;;1.45;1.35;;;;;;;32.85;28.61;98584.59;4984375;28;20029;-76
2021/06/27 11:25:46;;;;;;;1.63;1.50;;;;;;;33.76;27.85;98578.56;4978971;28;20035;-76
2021/06/27 11:28:21;;;;;;;1.65;1.27;;;;;;;33.93;28.60;98577.38;4984703;28;20101;-76
2021/06/27 11:31:13;;;;;;;1.50;1.40;;;;;;;33.79;28.68;98575.50;4985118;28;20439;-76
2021/06/27 11:33:39;;;;;;;1.33;1.20;;;;;;;34.49;28.11;98577.91;4975960;28;20105;-75
2021/06/27 11:36:23;;;;;;;1.67;1.40;;;;;;;34.33;27.69;98578.06;4974225;28;20508;-76
2021/06/27 11:38:49;;;;;;;2.03;1.50;;;;;;;33.68;28.79;98578.63;4984296;28;20022;-76
2021/06/27 11:41:17;;;;;;;1.80;1.70;;;;;;;30.50;32.69;98581.47;4977988;28;20026;-75
2021/06/27 11:43:59;;;;;;;1.77;1.45;;;;;;;30.64;33.59;98572.84;4980493;28;20384;-75
2021/06/27 11:46:42;;;;;;;1.83;1.70;;;;;;;32.41;30.43;98583.22;4984069;28;20030;-76
2021/06/27 11:49:10;;;;;;;1.80;1.45;;;;;;;32.84;30.78;98570.34;4973722;28;20582;-76
2021/06/27 11:51:46;;;;;;;2.53;1.60;;;;;;;32.68;30.51;98578.44;4985248;28;20061;-75
2021/06/27 11:54:14;;;;;;;1.70;1.60;;;;;;;32.06;31.08;98580.91;4988860;28;20368;-75
2021/06/27 11:57:01;;;;;;;1.60;1.50;;;;;;;31.72;31.68;98579.22;4981361;28;20113;-75
2021/06/27 11:59:32;;;;;;;2.03;1.48;;;;;;;31.43;31.59;98583.22;4981768;28;20646;-76
2021/06/27 12:02:18;;;;;;;1.88;1.77;;;;;;;30.49;33.13;98572.63;4979402;28;20041;-74
2021/06/27 12:04:46;;;;;;;2.92;2.00;;;;;;;30.20;33.67;98578.28;4988406;28;20037;-74
2021/06/27 12:07:31;;;;;;;2.42;2.20;;;;;;;30.62;32.73;98567.69;4978956;28;20023;-74
2021/06/27 12:09:59;;;;;;;3.78;1.50;;;;;;;30.62;32.65;98564.16;4986191;28;20073;-73
2021/06/27 12:12:45;;;;;;;1.83;1.70;;;;;;;30.92;32.78;98560.97;4975436;28;20102;-75
2021/06/27 12:15:22;;;;;;;1.50;1.40;;;;;;;31.21;34.11;98554.34;4979130;28;20077;-80
2021/06/27 12:17:53;;;;;;;1.63;1.50;;;;;;;31.38;33.76;98550.75;4983457;28;20029;-81
2021/06/27 12:20:19;;;;;;;1.73;1.60;;;;;;;31.54;32.02;98547.22;4982346;28;20058;-80
2021/06/27 12:22:57;;;;;;;1.58;1.45;;;;;;;31.22;32.10;98556.84;4985760;28;20019;-80
2021/06/27 12:25:29;;;;;;;1.50;1.40;;;;;;;30.61;32.71;98546.44;4987657;28;20030;-78
2021/06/27 12:27:58;;;;;;;1.70;1.60;;;;;;;29.62;34.55;98552.09;4989159;28;20431;-81
2021/06/27 12:30:39;;;;;;;;;;;;;;;29.66;34.63;98550.81;4982802;28;20026;-82
2021/06/27 12:33:12;;;;;;;1.50;1.40;;;;;;;29.82;34.66;98545.59;4988039;28;19910;-74
2021/06/27 12:35:39;;;;;;;1.48;1.38;;;;;;;28.97;34.39;98546.94;4985266;28;20031;-78
2021/06/27 12:38:06;;;;;;;2.70;1.65;;;;;;;29.66;34.20;98540.13;4983922;28;20070;-78
2021/06/27 12:40:32;;;;;;;3.53;1.60;;;;;;;29.77;34.98;98531.84;4980782;28;20027;-77
2021/06/27 12:42:58;;;;;;;1.70;1.60;;;;;;;28.42;36.60;98534.41;4981341;28;20491;-73
2021/06/27 12:45:24;;;;;;;1.50;1.40;;;;;;;29.35;35.91;98524.50;4985956;28;20075;-73
2021/06/27 12:47:50;;;;;;;1.50;1.40;;;;;;;29.99;34.77;98519.00;4977383;28;20035;-75
2021/06/27 12:50:16;;;;;;;1.77;1.40;;;;;;;29.63;34.43;98524.41;4987552;28;20076;-74
2021/06/27 12:52:43;;;;;;;2.08;1.70;;;;;;;29.65;36.37;98522.44;4987485;28;20082;-72
2021/06/27 12:55:11;;;;;;;1.50;1.40;;;;;;;29.32;34.84;98526.63;4988682;28;20029;-71
2021/06/27 12:57:36;;;;;;;2.55;1.50;;;;;;;29.33;33.57;98523.78;4986345;28;20651;-71
2021/06/27 13:00:04;;;;;;;1.35;1.30;;;;;;;29.62;32.98;98528.91;4986465;28;20022;-71
2021/06/27 13:02:32;;;;;;;1.65;1.55;;;;;;;29.82;34.20;98521.53;4979790;28;20108;-71
2021/06/27 13:05:15;;;;;;;1.95;1.60;;;;;;;29.56;33.86;98518.00;4986483;28;20030;-71
2021/06/27 13:07:44;;;;;;;1.50;1.40;;;;;;;30.03;34.79;98515.03;4978841;28;20022;-71
2021/06/27 13:10:16;;;;;;;3.42;1.30;;;;;;;29.90;32.18;98521.59;4983713;28;20030;-71
2021/06/27 13:12:50;;;;;;;1.70;1.60;;;;;;;29.30;34.99;98526.78;4983103;28;20084;-71
2021/06/27 13:15:19;;;;;;;1.50;1.30;;;;;;;29.01;34.91;98528.78;4982104;28;20019;-74
2021/06/27 13:17:58;;;;;;;1.42;1.33;;;;;;;28.52;35.33;98530.84;4988390;28;20114;-74
2021/06/27 13:20:27;;;;;;;4.03;1.27;;;;;;;29.24;36.17;98511.34;4984092;28;20097;-74
2021/06/27 13:22:53;;;;;;;;;;;;;;;29.78;35.35;98505.97;4986630;28;20056;-74
2021/06/27 13:25:33;;;;;;;1.98;1.88;;;;;;;28.21;36.13;98515.09;4984100;28;19924;-72
2021/06/27 13:27:58;;;;;;;6.70;1.65;;;;;;;29.30;35.06;98513.44;4984784;28;20492;-73
2021/06/27 13:30:24;;;;;;;3.13;1.50;;;;;;;29.57;35.17;98503.66;4982768;28;20062;-72
2021/06/27 13:33:07;;;;;;;1.70;1.50;;;;;;;29.75;34.83;98507.16;4982660;28;20109;-70
2021/06/27 13:35:35;;;;;;;1.83;1.30;;;;;;;29.18;33.18;98503.97;4984505;28;20439;-70
2021/06/27 13:38:03;;;;;;;3.47;1.60;;;;;;;29.16;33.86;98504.13;4978361;28;20495;-70
2021/06/27 13:40:29;;;;;;;1.40;1.30;;;;;;;29.54;33.60;98503.94;4978767;28;20502;-69
2021/06/27 13:42:55;;;;;;;1.20;1.20;;;;;;;29.68;31.56;98500.75;4979519;28;20484;-70
2021/06/27 13:45:21;;;;;;;1.65;1.55;;;;;;;29.26;32.23;98505.88;4986504;28;20030;-70
2021/06/27 13:47:50;;;;;;;2.65;1.30;;;;;;;28.95;31.62;98498.22;4977696;28;20023;-71
2021/06/27 13:50:16;;;;;;;1.50;1.40;;;;;;;29.30;31.92;98502.75;4985243;28;20031;-71
2021/06/27 13:52:41;;;;;;;1.05;1.05;;;;;;;29.52;31.44;98505.94;4984688;28;20516;-72
2021/06/27 13:55:07;;;;;;;1.25;1.15;;;;;;;29.76;31.77;98506.16;4978453;28;20031;-71
2021/06/27 13:57:33;;;;;;;1.13;1.10;;;;;;;29.87;33.19;98505.88;4979352;28;20391;-71
2021/06/27 13:59:58;;;;;;;1.15;1.15;;;;;;;29.41;33.04;98505.19;4982806;28;20097;-71
2021/06/27 14:02:23;;;;;;;1.35;1.25;;;;;;;29.36;33.31;98502.13;4977719;28;20480;-74
2021/06/27 14:04:49;;;;;;;1.40;1.30;;;;;;;29.41;30.88;98499.84;4980777;28;20026;-72
2021/06/27 14:07:16;;;;;;;1.40;1.30;;;;;;;29.41;30.55;98494.50;4992639;28;20484;-72
2021/06/27 14:09:42;;;;;;;1.55;1.45;;;;;;;29.85;30.93;98496.38;4984939;28;20387;-72
2021/06/27 14:12:07;;;;;;;1.67;1.50;;;;;;;29.86;33.15;98498.88;4983076;28;20125;-72
2021/06/27 14:14:32;;;;;;;3.83;3.50;;;;;;;30.17;30.41;98495.72;4974888;28;20023;-72
2021/06/27 14:17:01;;;;;;;1.58;1.48;;;;;;;30.77;31.07;98493.03;4960735;28;20484;-72
2021/06/27 14:19:26;;;;;;;1.40;1.30;;;;;;;29.80;31.34;98494.16;4984173;28;20487;-73
2021/06/27 14:21:51;;;;;;;1.30;1.20;;;;;;;30.94;30.74;98493.88;4968873;28;20057;-72
2021/06/27 14:24:17;;;;;;;1.30;1.20;;;;;;;31.19;30.50;98486.75;4981043;28;20046;-72
2021/06/27 14:26:42;;;;;;;1.98;1.13;;;;;;;30.95;31.81;98485.72;4988231;28;20037;-72
2021/06/27 14:29:08;;;;;;;2.25;1.23;;;;;;;29.92;32.17;98486.72;4969282;28;20368;-72
2021/06/27 14:31:34;;;;;;;1.83;1.27;;;;;;;30.36;31.69;98484.81;4981997;28;20022;-72
2021/06/27 14:34:00;;;;;;;1.30;1.20;;;;;;;30.46;31.17;98485.53;4980025;28;20050;-71
2021/06/27 14:36:26;;;;;;;1.40;1.30;;;;;;;30.62;31.89;98486.59;4983625;28;20027;-71
2021/06/27 14:38:52;;;;;;;2.70;1.30;;;;;;;30.59;30.88;98486.91;4975558;28;20106;-72
2021/06/27 14:41:18;;;;;;;1.40;1.30;;;;;;;30.87;30.54;98485.69;4974259;28;20014;-73
2021/06/27 14:43:43;;;;;;;4.68;1.35;;;;;;;30.53;29.92;98490.25;4979135;28;20030;-73
2021/06/27 14:46:09;;;;;;;1.27;1.17;;;;;;;30.87;28.96;98488.38;4975447;28;20071;-72
2021/06/27 14:48:36;;;;;;;1.50;1.40;;;;;;;30.77;30.68;98493.03;4972576;28;20361;-72
2021/06/27 14:51:03;;;;;;;1.20;1.10;;;;;;;30.13;30.20;98494.41;4990471;28;20026;-72
2021/06/27 14:53:29;;;;;;;1.10;1.10;;;;;;;30.19;29.95;98483.91;4977815;28;20125;-73
2021/06/27 14:55:54;;;;;;;2.30;1.23;;;;;;;30.16;29.81;98483.38;4957449;28;20468;-72
2021/06/27 14:58:20;;;;;;;1.73;1.10;;;;;;;29.74;29.45;98484.09;4963976;28;20025;-72
2021/06/27 15:00:46;;;;;;;0.95;0.95;;;;;;;29.84;30.93;98479.50;4981750;28;20026;-72
2021/06/27 15:03:12;;;;;;;2.20;1.20;;;;;;;29.79;30.92;98481.81;4987175;28;20081;-72
2021/06/27 15:05:37;;;;;;;1.35;1.25;;;;;;;29.85;30.55;98483.00;4958230;28;20373;-72
2021/06/27 15:08:03;;;;;;;1.45;1.20;;;;;;;29.56;30.55;98493.97;4972505;28;20029;-72
2021/06/27 15:10:30;;;;;;;1.20;1.10;;;;;;;29.74;30.26;98492.13;4956587;28;20122;-71
2021/06/27 15:12:55;;;;;;;1.42;1.17;;;;;;;30.11;30.59;98501.69;4984835;28;20048;-71
2021/06/27 15:15:21;;;;;;;1.25;1.15;;;;;;;30.02;30.73;98507.97;4972364;28;20027;-71
2021/06/27 15:17:46;;;;;;;2.00;1.60;;;;;;;29.80;31.03;98502.19;4975284;28;20026;-72
2021/06/27 15:20:12;;;;;;;1.25;1.15;;;;;;;29.81;33.13;98501.16;4975480;28;20122;-72
2021/06/27 15:22:37;;;;;;;2.13;1.48;;;;;;;29.22;32.57;98500.00;4982759;28;20026;-72
2021/06/27 15:25:03;;;;;;;2.00;1.40;;;;;;;29.37;32.54;98495.78;4969523;28;20106;-71
2021/06/27 15:27:29;;;;;;;1.50;1.40;;;;;;;29.78;32.77;98501.47;4975293;28;20936;-71
2021/06/27 15:29:54;;;;;;;1.40;1.30;;;;;;;29.74;31.96;98499.28;4988364;28;20027;-71
2021/06/27 15:32:20;;;;;;;1.58;1.48;;;;;;;29.50;32.89;98495.41;4980794;28;20022;-72
2021/06/27 15:34:45;;;;;;;2.03;1.80;;;;;;;29.16;34.20;98495.28;4981595;28;20096;-72
2021/06/27 15:37:10;;;;;;;3.55;2.10;;;;;;;29.41;33.56;98497.16;4987549;28;20033;-72
2021/06/27 15:39:36;;;;;;;1.98;1.88;;;;;;;29.80;34.21;98499.50;4976516;28;20022;-72
2021/06/27 15:42:03;;;;;;;3.20;1.80;;;;;;;29.98;32.69;98495.91;4979263;28;20105;-72
2021/06/27 15:44:29;;;;;;;1.70;1.60;;;;;;;29.75;32.77;98495.63;4983674;28;20420;-72
2021/06/27 15:46:54;;;;;;;1.50;1.30;;;;;;;29.67;32.78;98488.38;4985131;28;20018;-72
2021/06/27 15:49:20;;;;;;;1.45;1.25;;;;;;;29.68;33.41;98490.88;4976665;28;20062;-72
2021/06/27 15:51:45;;;;;;;2.45;1.65;;;;;;;29.79;34.45;98491.66;4988968;28;20035;-72
2021/06/27 15:54:11;;;;;;;1.67;1.58;;;;;;;29.08;34.94;98497.84;4975099;28;20102;-72
2021/06/27 15:56:37;;;;;;;1.23;1.23;;;;;;;29.15;35.32;98496.25;4973016;28;20459;-72
2021/06/27 15:59:03;;;;;;;4.38;1.58;;;;;;;29.12;35.62;98493.91;4986485;28;20050;-72
2021/06/27 16:01:28;;;;;;;1.80;1.70;;;;;;;29.10;35.93;98491.38;4976009;28;20415;-72
2021/06/27 16:03:54;;;;;;;1.33;1.25;;;;;;;28.65;36.45;98491.38;4988142;28;20033;-72
2021/06/27 16:06:19;;;;;;;1.83;1.73;;;;;;;28.49;36.23;98496.50;4980332;28;20014;-72
2021/06/27 16:08:48;;;;;;;2.28;2.03;;;;;;;28.60;36.45;98489.13;4981219;28;20033;-72
2021/06/27 16:11:15;;;;;;;;;;;;;;;28.86;38.63;98489.25;4988182;28;20026;-72
2021/06/27 16:13:45;;;;;;;1.85;1.75;;;;;;;28.72;35.87;98487.13;4973352;28;19917;-72
2021/06/27 16:16:16;;;;;;;2.45;1.85;;;;;;;28.52;36.78;98490.88;4979165;28;20108;-72
2021/06/27 16:18:47;;;;;;;4.45;1.60;;;;;;;28.34;40.47;98493.50;4981630;28;20046;-72
2021/06/27 16:21:14;;;;;;;1.70;1.60;;;;;;;28.01;41.59;98486.84;4987545;28;20395;-72
2021/06/27 16:23:40;;;;;;;2.55;1.75;;;;;;;28.08;42.56;98490.59;4973906;28;20502;-73
2021/06/27 16:26:06;;;;;;;2.70;1.80;;;;;;;28.01;43.23;98485.03;4978366;28;20022;-72
2021/06/27 16:28:34;;;;;;;2.28;2.10;;;;;;;27.52;43.66;98484.25;4982795;28;20059;-72
2021/06/27 16:31:00;;;;;;;3.08;2.85;;;;;;;27.20;43.73;98476.56;4985446;28;20022;-72
2021/06/27 16:33:25;;;;;;;4.28;2.83;;;;;;;27.02;44.32;98471.06;4975668;28;20034;-72
2021/06/27 16:35:51;;;;;;;3.17;2.97;;;;;;;27.16;44.15;98460.03;4988358;28;20104;-72
2021/06/27 16:38:17;;;;;;;5.05;2.60;;;;;;;27.02;45.73;98454.25;4979665;28;20480;-72
2021/06/27 16:40:43;;;;;;;3.38;3.10;;;;;;;26.96;47.45;98457.47;4981240;28;20512;-73
2021/06/27 16:43:08;;;;;;;2.83;2.10;;;;;;;27.02;46.83;98451.59;4972467;28;20026;-72
2021/06/27 16:45:34;;;;;;;3.13;2.90;;;;;;;26.51;47.80;98452.66;4988528;28;20105;-72
2021/06/27 16:47:59;;;;;;;3.08;2.78;;;;;;;26.40;47.91;98446.47;4977011;28;20022;-72
2021/06/27 16:50:24;;;;;;;3.13;2.83;;;;;;;26.43;47.46;98436.56;4983651;28;20052;-72
2021/06/27 16:52:50;;;;;;;2.30;2.10;;;;;;;26.46;47.35;98441.59;4984257;28;20031;-72
2021/06/27 16:55:15;;;;;;;2.30;2.10;;;;;;;26.45;46.65;98437.25;4989290;28;20114;-72
2021/06/27 16:57:41;;;;;;;2.88;2.50;;;;;;;26.36;46.47;98434.41;4973165;28;20058;-73
2021/06/27 17:00:10;;;;;;;2.80;2.28;;;;;;;26.18;47.00;98436.03;4978071;28;20436;-73
2021/06/27 17:02:36;;;;;;;4.90;2.60;;;;;;;26.07;47.48;98431.66;4981449;28;20507;-72
2021/06/27 17:05:03;;;;;;;6.25;2.60;;;;;;;26.05;48.27;98424.78;4974994;28;20026;-72
2021/06/27 17:07:28;;;;;;;2.80;1.80;;;;;;;26.02;49.03;98420.59;4991686;28;20040;-72
2021/06/27 17:09:54;;;;;;;7.13;2.00;;;;;;;26.02;48.06;98420.59;4975281;28;20105;-73
2021/06/27 17:12:20;;;;;;;2.17;1.98;;;;;;;26.04;49.43;98423.13;4983291;28;20438;-69
2021/06/27 17:14:46;;;;;;;2.42;1.83;;;;;;;25.97;50.44;98443.22;4983954;28;20023;-69
2021/06/27 17:17:12;;;;;;;2.05;1.95;;;;;;;25.84;49.10;98449.56;4990278;28;20033;-69
2021/06/27 17:19:38;;;;;;;2.30;2.10;;;;;;;25.73;52.26;98446.97;4978928;28;20078;-69
2021/06/27 17:22:04;;;;;;;3.85;2.13;;;;;;;25.69;52.03;98452.69;4988172;28;20033;-69
2021/06/27 17:24:33;;;;;;;1.70;1.60;;;;;;;25.80;50.82;98453.47;4984386;28;20022;-69
2021/06/27 17:26:58;;;;;;;1.90;1.80;;;;;;;25.88;49.74;98451.00;4982126;28;20042;-69
2021/06/27 17:29:24;;;;;;;2.20;1.90;;;;;;;25.82;51.77;98450.66;4991514;28;20034;-70
2021/06/27 17:31:49;;;;;;;3.70;2.17;;;;;;;25.62;51.66;98449.69;4978697;28;20033;-70
2021/06/27 17:34:17;;;;;;;2.53;2.00;;;;;;;25.49;53.16;98459.69;4987987;28;20027;-69
2021/06/27 17:36:42;;;;;;;2.53;2.08;;;;;;;25.49;53.65;98454.38;4975035;28;20114;-70
2021/06/27 17:39:07;;;;;;;2.05;1.95;;;;;;;25.48;53.41;98453.53;4989359;28;20126;-69
2021/06/27 17:41:33;;;;;;;2.80;2.20;;;;;;;25.58;53.66;98442.97;4976616;28;20023;-73
2021/06/27 17:43:58;;;;;;;4.07;2.22;;;;;;;25.61;52.64;98448.00;4980249;28;20060;-70
2021/06/27 17:46:23;;;;;;;3.50;2.00;;;;;;;25.46;51.15;98459.94;4985979;28;20109;-69
2021/06/27 17:48:49;;;;;;;2.40;2.03;;;;;;;25.30;50.71;98458.56;4975064;28;20074;-70
2021/06/27 17:51:15;;;;;;;2.17;1.80;;;;;;;25.32;51.25;98464.56;4983147;28;20030;-70
2021/06/27 17:53:43;;;;;;;2.70;2.20;;;;;;;25.36;51.43;98460.69;4979933;28;20512;-70
2021/06/27 17:56:19;;;;;;;3.58;2.13;;;;;;;25.47;52.31;98458.94;4979121;28;20403;-70
2021/06/27 17:58:46;;;;;;;6.28;2.05;;;;;;;25.36;52.49;98458.03;4979635;28;20042;-70
2021/06/27 18:01:11;;;;;;;2.67;2.38;;;;;;;25.19;53.56;98448.03;4979478;28;20049;-69
2021/06/27 18:03:37;;;;;;;3.42;2.25;;;;;;;25.05;54.03;98453.59;4979571;28;20026;-70
2021/06/27 18:06:03;;;;;;;2.80;2.25;;;;;;;25.09;54.51;98441.78;4979749;28;20030;-70
2021/06/27 18:08:28;;;;;;;2.53;2.33;;;;;;;25.06;54.20;98449.97;4979357;28;20030;-70
2021/06/27 18:10:54;;;;;;;2.13;2.03;;;;;;;25.10;53.73;98454.09;4979393;28;20401;-70
2021/06/27 18:13:19;;;;;;;2.28;2.08;;;;;;;25.19;53.54;98463.94;4979416;28;20054;-69
2021/06/27 18:15:45;;;;;;;3.95;2.38;;;;;;;25.14;53.46;98460.78;4979150;28;20030;-70
2021/06/27 18:18:10;;;;;;;5.45;2.10;;;;;;;25.29;53.80;98462.19;4979576;28;20034;-70
2021/06/27 18:20:36;;;;;;;3.75;2.50;;;;;;;25.29;52.86;98464.84;4979184;28;20036;-70
2021/06/27 18:23:03;;;;;;;2.22;2.03;;;;;;;25.23;52.87;98470.63;4979330;28;20034;-70
2021/06/27 18:25:29;;;;;;;2.80;2.10;;;;;;;25.16;53.38;98481.91;4978898;28;20038;-70
2021/06/27 18:27:54;;;;;;;2.60;2.40;;;;;;;25.07;54.13;98475.53;4979226;28;20054;-71
2021/06/27 18:30:20;;;;;;;5.35;2.13;;;;;;;25.04;53.41;98486.34;4979095;28;20118;-70
2021/06/27 18:32:47;;;;;;;3.10;2.80;;;;;;;25.09;54.57;98485.06;4979410;28;20105;-70
2021/06/27 18:35:13;;;;;;;4.03;3.30;;;;;;;25.00;55.11;98491.09;4979338;28;20038;-71
2021/06/27 18:37:38;;;;;;;3.30;2.78;;;;;;;24.92;55.24;98488.22;4978903;28;20073;-70
2021/06/27 18:40:06;;;;;;;4.47;2.10;;;;;;;24.90;55.95;98483.97;4979019;28;20031;-70